sensor_id;sensor_type;location;lat;lon;timestamp;pressure;altitude;pressure_sealevel;temperature;humidity
23427;BME280;41148;45.420;10.952;2022-07-12T00:01:59;101079.03;;;24.41;48.83
23427;BME280;41148;45.420;10.952;2022-07-12T00:04:27;101074.59;;;24.40;48.27
23427;BME280;41148;45.420;10.952;2022-07-12T00:06:54;101073.59;;;24.41;48.11
23427;BME280;41148;45.420;10.952;2022-07-12T00:09:21;101062.84;;;24.51;47.67
23427;BME280;41148;45.420;10.952;2022-07-12T00:11:49;101065.69;;;24.61;46.97
23427;BME280;41148;45.420;10.952;2022-07-12T00:14:16;101069.41;;;24.60;46.96
23427;BME280;41148;45.420;10.952;2022-07-12T00:16:43;101064.91;;;24.25;48.04
23427;BME280;41148;45.420;10.952;2022-07-12T00:19:11;101063.31;;;24.22;47.93
23427;BME280;41148;45.420;10.952;2022-07-12T00:21:38;101066.06;;;24.34;47.50
23427;BME280;41148;45.420;10.952;2022-07-12T00:24:05;101067.28;;;24.41;47.17
23427;BME280;41148;45.420;10.952;2022-07-12T00:26:32;101063.69;;;24.40;47.31
23427;BME280;41148;45.420;10.952;2022-07-12T00:28:59;101064.38;;;24.20;47.51
23427;BME280;41148;45.420;10.952;2022-07-12T00:31:27;101060.81;;;24.31;47.08
23427;BME280;41148;45.420;10.952;2022-07-12T00:33:54;101060.81;;;24.31;46.45
23427;BME280;41148;45.420;10.952;2022-07-12T00:36:21;101053.53;;;24.31;46.08
23427;BME280;41148;45.420;10.952;2022-07-12T00:38:48;101065.28;;;24.32;45.89
23427;BME280;41148;45.420;10.952;2022-07-12T00:41:16;101067.06;;;24.33;45.48
23427;BME280;41148;45.420;10.952;2022-07-12T00:43:43;101065.28;;;24.32;45.40
23427;BME280;41148;45.420;10.952;2022-07-12T00:46:10;101063.53;;;24.31;45.32
23427;BME280;41148;45.420;10.952;2022-07-12T00:48:37;101070.00;;;24.41;45.11
23427;BME280;41148;45.420;10.952;2022-07-12T00:51:05;101064.47;;;24.42;45.06
23427;BME280;41148;45.420;10.952;2022-07-12T00:53:32;101065.81;;;24.37;44.99
23427;BME280;41148;45.420;10.952;2022-07-12T00:55:59;101057.91;;;24.34;45.09
23427;BME280;41148;45.420;10.952;2022-07-12T00:58:27;101064.34;;;24.44;44.77
23427;BME280;41148;45.420;10.952;2022-07-12T01:00:55;101055.31;;;24.43;44.59
23427;BME280;41148;45.420;10.952;2022-07-12T01:03:24;101057.50;;;24.38;44.60
23427;BME280;41148;45.420;10.952;2022-07-12T01:05:51;101058.09;;;24.31;44.76
23427;BME280;41148;45.420;10.952;2022-07-12T01:08:19;101060.19;;;24.27;44.78
23427;BME280;41148;45.420;10.952;2022-07-12T01:10:48;101055.50;;;24.29;44.83
23427;BME280;41148;45.420;10.952;2022-07-12T01:13:16;101061.63;;;24.44;44.36
23427;BME280;41148;45.420;10.952;2022-07-12T01:15:43;101069.41;;;24.48;44.12
23427;BME280;41148;45.420;10.952;2022-07-12T01:18:12;101069.78;;;24.55;43.92
23427;BME280;41148;45.420;10.952;2022-07-12T01:20:40;101065.06;;;24.46;44.11
23427;BME280;41148;45.420;10.952;2022-07-12T01:23:08;101067.81;;;24.46;44.06
23427;BME280;41148;45.420;10.952;2022-07-12T01:25:35;101060.63;;;24.45;44.22
23427;BME280;41148;45.420;10.952;2022-07-12T01:28:02;101059.75;;;24.44;44.23
23427;BME280;41148;45.420;10.952;2022-07-12T01:30:30;101060.88;;;24.42;44.09
23427;BME280;41148;45.420;10.952;2022-07-12T01:32:58;101057.78;;;24.46;44.09
23427;BME280;41148;45.420;10.952;2022-07-12T01:35:26;101062.63;;;24.43;44.18
23427;BME280;41148;45.420;10.952;2022-07-12T01:37:53;101065.56;;;24.51;44.16
23427;BME280;41148;45.420;10.952;2022-07-12T01:40:20;101062.09;;;24.49;44.24
23427;BME280;41148;45.420;10.952;2022-07-12T01:42:48;101063.34;;;24.45;44.50
23427;BME280;41148;45.420;10.952;2022-07-12T01:45:16;101057.16;;;24.43;44.59
23427;BME280;41148;45.420;10.952;2022-07-12T01:47:43;101057.03;;;24.44;44.79
23427;BME280;41148;45.420;10.952;2022-07-12T01:50:10;101063.22;;;24.46;44.70
23427;BME280;41148;45.420;10.952;2022-07-12T01:52:38;101060.09;;;24.51;44.78
23427;BME280;41148;45.420;10.952;2022-07-12T01:55:07;101054.19;;;24.46;45.07
23427;BME280;41148;45.420;10.952;2022-07-12T01:57:35;101055.31;;;24.43;45.31
23427;BME280;41148;45.420;10.952;2022-07-12T02:00:05;101060.09;;;24.40;45.44
23427;BME280;41148;45.420;10.952;2022-07-12T02:02:33;101058.88;;;24.33;45.80
23427;BME280;41148;45.420;10.952;2022-07-12T02:05:01;101051.59;;;24.33;45.53
23427;BME280;41148;45.420;10.952;2022-07-12T02:07:28;101060.31;;;24.25;46.05
23427;BME280;41148;45.420;10.952;2022-07-12T02:09:56;101060.94;;;24.18;46.45
23427;BME280;41148;45.420;10.952;2022-07-12T02:12:24;101064.50;;;24.18;46.93
23427;BME280;41148;45.420;10.952;2022-07-12T02:14:52;101063.91;;;24.15;47.36
23427;BME280;41148;45.420;10.952;2022-07-12T02:17:19;101064.91;;;24.14;47.73
23427;BME280;41148;45.420;10.952;2022-07-12T02:19:47;101059.44;;;24.14;48.17
23427;BME280;41148;45.420;10.952;2022-07-12T02:22:14;101063.03;;;24.25;48.64
23427;BME280;41148;45.420;10.952;2022-07-12T02:24:41;101068.69;;;24.11;49.83
23427;BME280;41148;45.420;10.952;2022-07-12T02:27:08;101068.09;;;24.19;49.91
23427;BME280;41148;45.420;10.952;2022-07-12T02:29:35;101070.22;;;24.15;50.42
23427;BME280;41148;45.420;10.952;2022-07-12T02:32:03;101068.13;;;24.30;50.35
23427;BME280;41148;45.420;10.952;2022-07-12T02:34:30;101069.72;;;24.21;50.85
23427;BME280;41148;45.420;10.952;2022-07-12T02:36:57;101069.34;;;24.15;51.37
23427;BME280;41148;45.420;10.952;2022-07-12T02:39:25;101076.00;;;24.22;51.41
23427;BME280;41148;45.420;10.952;2022-07-12T02:41:52;101073.06;;;24.25;51.46
23427;BME280;41148;45.420;10.952;2022-07-12T02:44:19;101073.94;;;24.25;51.72
23427;BME280;41148;45.420;10.952;2022-07-12T02:46:47;101071.94;;;24.16;52.29
23427;BME280;41148;45.420;10.952;2022-07-12T02:49:14;101073.41;;;24.09;52.57
23427;BME280;41148;45.420;10.952;2022-07-12T02:51:41;101072.63;;;23.96;53.25
23427;BME280;41148;45.420;10.952;2022-07-12T02:54:09;101068.94;;;24.08;52.89
23427;BME280;41148;45.420;10.952;2022-07-12T02:56:36;101069.94;;;24.07;53.08
23427;BME280;41148;45.420;10.952;2022-07-12T02:59:03;101068.22;;;24.06;53.10
23427;BME280;41148;45.420;10.952;2022-07-12T03:01:30;101069.81;;;24.09;53.06
23427;BME280;41148;45.420;10.952;2022-07-12T03:03:58;101075.50;;;24.06;53.05
23427;BME280;41148;45.420;10.952;2022-07-12T03:06:25;101076.38;;;24.06;53.15
23427;BME280;41148;45.420;10.952;2022-07-12T03:08:52;101066.81;;;24.01;53.30
23427;BME280;41148;45.420;10.952;2022-07-12T03:11:19;101077.22;;;23.95;53.37
23427;BME280;41148;45.420;10.952;2022-07-12T03:13:47;101081.91;;;23.93;53.56
23427;BME280;41148;45.420;10.952;2022-07-12T03:16:14;101081.66;;;23.96;53.39
23427;BME280;41148;45.420;10.952;2022-07-12T03:18:41;101080.81;;;23.96;53.47
23427;BME280;41148;45.420;10.952;2022-07-12T03:21:10;101077.09;;;23.97;53.33
23427;BME280;41148;45.420;10.952;2022-07-12T03:23:38;101080.81;;;24.07;53.01
23427;BME280;41148;45.420;10.952;2022-07-12T03:26:06;101084.66;;;24.05;53.05
23427;BME280;41148;45.420;10.952;2022-07-12T03:28:34;101081.41;;;23.99;53.36
23427;BME280;41148;45.420;10.952;2022-07-12T03:31:01;101080.94;;;23.94;53.58
23427;BME280;41148;45.420;10.952;2022-07-12T03:33:29;101087.13;;;23.96;53.45
23427;BME280;41148;45.420;10.952;2022-07-12T03:35:59;101089.84;;;23.96;53.56
23427;BME280;41148;45.420;10.952;2022-07-12T03:38:27;101085.72;;;23.91;53.56
23427;BME280;41148;45.420;10.952;2022-07-12T03:40:54;101089.19;;;23.93;53.67
23427;BME280;41148;45.420;10.952;2022-07-12T03:43:21;101091.28;;;23.89;53.83
23427;BME280;41148;45.420;10.952;2022-07-12T03:45:49;101096.09;;;23.86;53.88
23427;BME280;41148;45.420;10.952;2022-07-12T03:48:16;101093.38;;;23.86;53.84
23427;BME280;41148;45.420;10.952;2022-07-12T03:50:43;101094.59;;;23.82;54.04
23427;BME280;41148;45.420;10.952;2022-07-12T03:53:13;101101.16;;;23.79;54.21
23427;BME280;41148;45.420;10.952;2022-07-12T03:55:40;101104.41;;;23.84;54.11
23427;BME280;41148;45.420;10.952;2022-07-12T03:58:07;101098.66;;;23.76;54.17
23427;BME280;41148;45.420;10.952;2022-07-12T04:00:34;101096.56;;;23.80;54.02
23427;BME280;41148;45.420;10.952;2022-07-12T04:03:02;101099.13;;;23.70;54.42
23427;BME280;41148;45.420;10.952;2022-07-12T04:05:29;101103.53;;;23.60;54.79
23427;BME280;41148;45.420;10.952;2022-07-12T04:07:56;101110.47;;;23.64;54.64
23427;BME280;41148;45.420;10.952;2022-07-12T04:10:23;101105.16;;;23.62;54.62
23427;BME280;41148;45.420;10.952;2022-07-12T04:12:50;101102.59;;;23.72;54.36
23427;BME280;41148;45.420;10.952;2022-07-12T04:15:18;101104.97;;;23.77;54.06
23427;BME280;41148;45.420;10.952;2022-07-12T04:17:46;101115.38;;;23.83;53.91
23427;BME280;41148;45.420;10.952;2022-07-12T04:20:13;101113.25;;;23.75;54.02
23427;BME280;41148;45.420;10.952;2022-07-12T04:22:40;101110.88;;;23.70;54.19
23427;BME280;41148;45.420;10.952;2022-07-12T04:25:08;101110.19;;;23.80;53.76
23427;BME280;41148;45.420;10.952;2022-07-12T04:27:35;101111.91;;;23.81;53.75
23427;BME280;41148;45.420;10.952;2022-07-12T04:30:03;101114.63;;;23.81;53.61
23427;BME280;41148;45.420;10.952;2022-07-12T04:32:31;101115.78;;;23.89;53.19
23427;BME280;41148;45.420;10.952;2022-07-12T04:35:00;101119.72;;;23.85;53.28
23427;BME280;41148;45.420;10.952;2022-07-12T04:37:27;101119.03;;;23.94;53.12
23427;BME280;41148;45.420;10.952;2022-07-12T04:39:55;101114.91;;;23.89;53.16
23427;BME280;41148;45.420;10.952;2022-07-12T04:42:22;101120.00;;;23.93;53.06
23427;BME280;41148;45.420;10.952;2022-07-12T04:44:49;101117.88;;;23.86;53.47
23427;BME280;41148;45.420;10.952;2022-07-12T04:47:16;101116.88;;;23.87;53.75
23427;BME280;41148;45.420;10.952;2022-07-12T04:49:45;101110.59;;;23.86;53.92
23427;BME280;41148;45.420;10.952;2022-07-12T04:52:12;101108.50;;;24.01;53.47
23427;BME280;41148;45.420;10.952;2022-07-12T04:54:39;101100.97;;;23.93;53.92
23427;BME280;41148;45.420;10.952;2022-07-12T04:57:06;101108.22;;;23.93;54.09
23427;BME280;41148;45.420;10.952;2022-07-12T04:59:33;101114.91;;;23.89;54.10
23427;BME280;41148;45.420;10.952;2022-07-12T05:02:01;101116.53;;;23.91;54.14
23427;BME280;41148;45.420;10.952;2022-07-12T05:04:31;101118.09;;;23.83;54.60
23427;BME280;41148;45.420;10.952;2022-07-12T05:06:59;101119.88;;;23.95;54.22
23427;BME280;41148;45.420;10.952;2022-07-12T05:09:26;101121.63;;;23.96;54.28
23427;BME280;41148;45.420;10.952;2022-07-12T05:11:53;101119.66;;;24.09;53.77
23427;BME280;41148;45.420;10.952;2022-07-12T05:14:20;101120.94;;;24.16;53.43
23427;BME280;41148;45.420;10.952;2022-07-12T05:16:48;101120.69;;;24.19;53.48
23427;BME280;41148;45.420;10.952;2022-07-12T05:19:15;101125.97;;;24.10;53.78
23427;BME280;41148;45.420;10.952;2022-07-12T05:21:43;101123.53;;;24.18;53.71
23427;BME280;41148;45.420;10.952;2022-07-12T05:24:13;101127.88;;;24.20;53.58
23427;BME280;41148;45.420;10.952;2022-07-12T05:26:40;101131.44;;;24.21;53.76
23427;BME280;41148;45.420;10.952;2022-07-12T05:29:08;101128.88;;;24.31;53.63
23427;BME280;41148;45.420;10.952;2022-07-12T05:31:35;101129.13;;;24.27;53.50
23427;BME280;41148;45.420;10.952;2022-07-12T05:34:03;101122.94;;;24.25;53.79
23427;BME280;41148;45.420;10.952;2022-07-12T05:36:30;101133.41;;;24.08;54.45
23427;BME280;41148;45.420;10.952;2022-07-12T05:38:57;101123.91;;;24.13;54.51
23427;BME280;41148;45.420;10.952;2022-07-12T05:41:24;101132.94;;;24.14;54.46
23427;BME280;41148;45.420;10.952;2022-07-12T05:43:52;101134.31;;;24.31;53.99
23427;BME280;41148;45.420;10.952;2022-07-12T05:46:19;101134.75;;;24.37;53.65
23427;BME280;41148;45.420;10.952;2022-07-12T05:48:46;101143.91;;;24.36;53.55
23427;BME280;41148;45.420;10.952;2022-07-12T05:51:14;101148.63;;;24.34;53.90
23427;BME280;41148;45.420;10.952;2022-07-12T05:53:59;101144.16;;;24.33;53.99
23427;BME280;41148;45.420;10.952;2022-07-12T05:56:27;101149.78;;;24.30;54.18
23427;BME280;41148;45.420;10.952;2022-07-12T05:58:54;101160.41;;;24.22;53.98
23427;BME280;41148;45.420;10.952;2022-07-12T06:01:21;101154.50;;;24.28;53.93
23427;BME280;41148;45.420;10.952;2022-07-12T06:03:48;101163.84;;;24.37;53.71
23427;BME280;41148;45.420;10.952;2022-07-12T06:06:16;101164.97;;;24.34;53.77
23427;BME280;41148;45.420;10.952;2022-07-12T06:08:43;101155.94;;;24.34;54.05
23427;BME280;41148;45.420;10.952;2022-07-12T06:11:10;101157.00;;;24.31;54.15
23427;BME280;41148;45.420;10.952;2022-07-12T06:13:39;101163.53;;;24.28;54.30
23427;BME280;41148;45.420;10.952;2022-07-12T06:16:06;101175.09;;;24.32;54.32
23427;BME280;41148;45.420;10.952;2022-07-12T06:18:36;101165.44;;;24.39;54.39
23427;BME280;41148;45.420;10.952;2022-07-12T06:21:04;101164.84;;;24.36;54.09
23427;BME280;41148;45.420;10.952;2022-07-12T06:23:31;101172.25;;;24.34;54.52
23427;BME280;41148;45.420;10.952;2022-07-12T06:25:58;101172.44;;;24.31;54.50
23427;BME280;41148;45.420;10.952;2022-07-12T06:28:25;101179.66;;;24.32;54.53
23427;BME280;41148;45.420;10.952;2022-07-12T06:30:53;101182.31;;;24.44;54.00
23427;BME280;41148;45.420;10.952;2022-07-12T06:33:20;101184.38;;;24.41;54.27
23427;BME280;41148;45.420;10.952;2022-07-12T06:35:48;101184.66;;;24.49;54.29
23427;BME280;41148;45.420;10.952;2022-07-12T06:38:15;101190.50;;;24.55;54.50
23427;BME280;41148;45.420;10.952;2022-07-12T06:40:43;101205.53;;;24.72;54.16
23427;BME280;41148;45.420;10.952;2022-07-12T06:43:10;101208.50;;;24.80;54.06
23427;BME280;41148;45.420;10.952;2022-07-12T06:45:39;101197.84;;;24.77;53.97
23427;BME280;41148;45.420;10.952;2022-07-12T06:48:07;101205.75;;;24.69;54.45
23427;BME280;41148;45.420;10.952;2022-07-12T06:50:34;101203.75;;;24.60;54.75
23427;BME280;41148;45.420;10.952;2022-07-12T06:53:01;101215.28;;;24.64;54.24
23427;BME280;41148;45.420;10.952;2022-07-12T06:55:28;101216.16;;;24.64;54.62
23427;BME280;41148;45.420;10.952;2022-07-12T06:57:57;101221.09;;;24.59;54.55
23427;BME280;41148;45.420;10.952;2022-07-12T07:00:24;101220.09;;;24.60;54.49
23427;BME280;41148;45.420;10.952;2022-07-12T07:02:52;101220.00;;;24.62;54.70
23427;BME280;41148;45.420;10.952;2022-07-12T07:05:20;101223.34;;;24.76;54.48
23427;BME280;41148;45.420;10.952;2022-07-12T07:07:47;101222.13;;;24.80;54.13
23427;BME280;41148;45.420;10.952;2022-07-12T07:10:14;101224.34;;;24.87;54.22
23427;BME280;41148;45.420;10.952;2022-07-12T07:12:41;101221.03;;;24.94;54.09
23427;BME280;41148;45.420;10.952;2022-07-12T07:15:09;101227.72;;;24.90;53.92
23427;BME280;41148;45.420;10.952;2022-07-12T07:17:36;101223.63;;;24.84;54.19
23427;BME280;41148;45.420;10.952;2022-07-12T07:20:04;101223.00;;;24.81;54.32
23427;BME280;41148;45.420;10.952;2022-07-12T07:22:31;101220.56;;;25.00;53.88
23427;BME280;41148;45.420;10.952;2022-07-12T07:25:01;101229.50;;;25.02;53.45
23427;BME280;41148;45.420;10.952;2022-07-12T07:27:28;101230.38;;;25.03;53.75
23427;BME280;41148;45.420;10.952;2022-07-12T07:29:55;101238.81;;;25.22;53.40
23427;BME280;41148;45.420;10.952;2022-07-12T07:32:41;101240.28;;;25.26;52.72
23427;BME280;41148;45.420;10.952;2022-07-12T07:35:08;101233.72;;;25.29;53.00
23427;BME280;41148;45.420;10.952;2022-07-12T07:37:36;101235.94;;;25.13;52.68
23427;BME280;41148;45.420;10.952;2022-07-12T07:40:03;101232.09;;;25.04;53.28
23427;BME280;41148;45.420;10.952;2022-07-12T07:42:31;101227.34;;;24.95;53.68
23427;BME280;41148;45.420;10.952;2022-07-12T07:44:58;101223.91;;;25.04;53.43
23427;BME280;41148;45.420;10.952;2022-07-12T07:47:45;101224.53;;;25.07;52.71
23427;BME280;41148;45.420;10.952;2022-07-12T07:50:33;101224.91;;;25.25;52.47
23427;BME280;41148;45.420;10.952;2022-07-12T07:53:00;101221.06;;;25.39;51.99
23427;BME280;41148;45.420;10.952;2022-07-12T07:55:28;101222.66;;;25.53;51.52
23427;BME280;41148;45.420;10.952;2022-07-12T07:57:55;101223.50;;;25.64;51.78
23427;BME280;41148;45.420;10.952;2022-07-12T08:00:26;101214.56;;;25.74;50.54
23427;BME280;41148;45.420;10.952;2022-07-12T08:02:54;101220.16;;;25.72;51.13
23427;BME280;41148;45.420;10.952;2022-07-12T08:05:21;101209.63;;;25.79;50.95
23427;BME280;41148;45.420;10.952;2022-07-12T08:07:55;101210.09;;;25.84;51.10
23427;BME280;41148;45.420;10.952;2022-07-12T08:10:22;101213.19;;;25.90;50.82
23427;BME280;41148;45.420;10.952;2022-07-12T08:12:49;101211.41;;;26.01;49.02
23427;BME280;41148;45.420;10.952;2022-07-12T08:15:17;101208.03;;;26.08;49.04
23427;BME280;41148;45.420;10.952;2022-07-12T08:17:44;101201.91;;;26.16;49.06
23427;BME280;41148;45.420;10.952;2022-07-12T08:20:21;101203.88;;;26.14;48.28
23427;BME280;41148;45.420;10.952;2022-07-12T08:23:09;101208.44;;;26.24;46.82
23427;BME280;41148;45.420;10.952;2022-07-12T08:25:37;101205.09;;;26.21;46.62
23427;BME280;41148;45.420;10.952;2022-07-12T08:28:04;101207.19;;;26.29;48.11
23427;BME280;41148;45.420;10.952;2022-07-12T08:30:31;101199.31;;;26.46;47.07
23427;BME280;41148;45.420;10.952;2022-07-12T08:32:58;101204.44;;;26.61;46.73
23427;BME280;41148;45.420;10.952;2022-07-12T08:35:27;101203.97;;;26.76;46.83
23427;BME280;41148;45.420;10.952;2022-07-12T08:37:54;101204.88;;;27.07;45.27
23427;BME280;41148;45.420;10.952;2022-07-12T08:40:22;101207.03;;;27.04;45.72
23427;BME280;41148;45.420;10.952;2022-07-12T08:42:49;101204.88;;;27.07;45.17
23427;BME280;41148;45.420;10.952;2022-07-12T08:45:17;101213.59;;;27.22;45.22
23427;BME280;41148;45.420;10.952;2022-07-12T08:47:44;101210.19;;;27.09;43.34
23427;BME280;41148;45.420;10.952;2022-07-12T08:50:12;101212.81;;;27.20;44.05
23427;BME280;41148;45.420;10.952;2022-07-12T08:52:41;101216.22;;;27.33;43.32
23427;BME280;41148;45.420;10.952;2022-07-12T08:57:48;101225.19;;;27.45;42.86
23427;BME280;41148;45.420;10.952;2022-07-12T09:00:16;101223.25;;;27.36;43.52
23427;BME280;41148;45.420;10.952;2022-07-12T09:05:49;101217.84;;;27.55;41.64
23427;BME280;41148;45.420;10.952;2022-07-12T09:08:23;101217.63;;;27.68;41.81
23427;BME280;41148;45.420;10.952;2022-07-12T09:10:54;101222.25;;;27.77;42.31
23427;BME280;41148;45.420;10.952;2022-07-12T09:16:14;101219.38;;;27.88;40.62
23427;BME280;41148;45.420;10.952;2022-07-12T09:18:43;101220.53;;;27.86;41.15
23427;BME280;41148;45.420;10.952;2022-07-12T09:21:25;101224.75;;;27.90;40.30
23427;BME280;41148;45.420;10.952;2022-07-12T09:23:53;101224.44;;;27.93;39.64
23427;BME280;41148;45.420;10.952;2022-07-12T09:26:21;101221.91;;;27.61;39.67
23427;BME280;41148;45.420;10.952;2022-07-12T09:28:49;101225.91;;;27.47;40.80
23427;BME280;41148;45.420;10.952;2022-07-12T09:31:17;101212.97;;;27.59;41.03
23427;BME280;41148;45.420;10.952;2022-07-12T09:34:01;101221.25;;;27.78;40.37
23427;BME280;41148;45.420;10.952;2022-07-12T09:36:56;101212.16;;;27.78;39.75
23427;BME280;41148;45.420;10.952;2022-07-12T09:39:23;101214.34;;;27.84;39.51
23427;BME280;41148;45.420;10.952;2022-07-12T09:41:53;101206.13;;;27.84;38.72
23427;BME280;41148;45.420;10.952;2022-07-12T09:44:20;101215.91;;;27.67;40.01
23427;BME280;41148;45.420;10.952;2022-07-12T09:46:48;101207.47;;;27.49;40.74
23427;BME280;41148;45.420;10.952;2022-07-12T09:49:16;101205.28;;;27.83;40.40
23427;BME280;41148;45.420;10.952;2022-07-12T09:51:53;101203.56;;;28.11;40.78
23427;BME280;41148;45.420;10.952;2022-07-12T09:54:24;101202.41;;;28.23;41.66
23427;BME280;41148;45.420;10.952;2022-07-12T09:56:58;101200.53;;;28.24;41.76
23427;BME280;41148;45.420;10.952;2022-07-12T09:59:27;101197.50;;;28.08;41.34
23427;BME280;41148;45.420;10.952;2022-07-12T10:01:55;101198.25;;;28.10;41.66
23427;BME280;41148;45.420;10.952;2022-07-12T10:04:28;101197.25;;;28.30;42.02
23427;BME280;41148;45.420;10.952;2022-07-12T10:06:56;101197.50;;;28.56;39.65
23427;BME280;41148;45.420;10.952;2022-07-12T10:09:24;101202.41;;;28.62;39.44
23427;BME280;41148;45.420;10.952;2022-07-12T10:11:52;101194.44;;;28.78;39.38
23427;BME280;41148;45.420;10.952;2022-07-12T10:14:32;101195.47;;;28.68;39.72
23427;BME280;41148;45.420;10.952;2022-07-12T10:17:00;101194.31;;;28.70;39.83
23427;BME280;41148;45.420;10.952;2022-07-12T10:19:31;101195.63;;;28.57;40.15
23427;BME280;41148;45.420;10.952;2022-07-12T10:21:59;101188.38;;;28.65;40.14
23427;BME280;41148;45.420;10.952;2022-07-12T10:29:25;101185.69;;;28.36;39.48
23427;BME280;41148;45.420;10.952;2022-07-12T10:31:52;101187.00;;;28.42;39.56
23427;BME280;41148;45.420;10.952;2022-07-12T10:34:20;101176.19;;;28.31;39.17
23427;BME280;41148;45.420;10.952;2022-07-12T10:39:40;101175.84;;;28.63;38.85
23427;BME280;41148;45.420;10.952;2022-07-12T10:44:42;101174.97;;;28.62;38.75
23427;BME280;41148;45.420;10.952;2022-07-12T10:47:11;101173.59;;;28.19;39.62
23427;BME280;41148;45.420;10.952;2022-07-12T10:49:46;101171.44;;;28.33;40.16
23427;BME280;41148;45.420;10.952;2022-07-12T10:52:14;101159.25;;;28.55;39.49
23427;BME280;41148;45.420;10.952;2022-07-12T10:54:43;101153.06;;;28.52;39.21
23427;BME280;41148;45.420;10.952;2022-07-12T10:57:14;101159.16;;;28.37;39.34
23427;BME280;41148;45.420;10.952;2022-07-12T10:59:41;101152.09;;;28.15;39.38
23427;BME280;41148;45.420;10.952;2022-07-12T11:02:12;101148.34;;;28.16;39.12
23427;BME280;41148;45.420;10.952;2022-07-12T11:04:51;101150.66;;;28.20;39.36
23427;BME280;41148;45.420;10.952;2022-07-12T11:07:18;101153.41;;;28.20;38.85
23427;BME280;41148;45.420;10.952;2022-07-12T11:09:50;101152.72;;;28.28;39.47
23427;BME280;41148;45.420;10.952;2022-07-12T11:12:18;101149.50;;;28.42;39.07
23427;BME280;41148;45.420;10.952;2022-07-12T11:14:45;101143.13;;;28.51;38.64
23427;BME280;41148;45.420;10.952;2022-07-12T11:17:13;101150.66;;;28.49;39.13
23427;BME280;41148;45.420;10.952;2022-07-12T11:19:40;101146.56;;;28.63;38.44
23427;BME280;41148;45.420;10.952;2022-07-12T11:22:08;101142.94;;;28.63;38.95
23427;BME280;41148;45.420;10.952;2022-07-12T11:24:35;101136.88;;;28.69;38.67
23427;BME280;41148;45.420;10.952;2022-07-12T11:27:03;101133.97;;;28.70;38.67
23427;BME280;41148;45.420;10.952;2022-07-12T11:29:32;101142.00;;;28.91;38.42
23427;BME280;41148;45.420;10.952;2022-07-12T11:32:00;101135.31;;;29.03;39.02
23427;BME280;41148;45.420;10.952;2022-07-12T11:34:35;101132.44;;;29.05;38.86
23427;BME280;41148;45.420;10.952;2022-07-12T11:37:03;101140.22;;;29.10;39.46
23427;BME280;41148;45.420;10.952;2022-07-12T11:39:34;101125.41;;;28.83;40.05
23427;BME280;41148;45.420;10.952;2022-07-12T11:42:02;101124.84;;;28.89;40.11
23427;BME280;41148;45.420;10.952;2022-07-12T11:47:17;101139.13;;;29.20;38.38
23427;BME280;41148;45.420;10.952;2022-07-12T11:49:44;101138.84;;;28.86;38.94
23427;BME280;41148;45.420;10.952;2022-07-12T11:52:14;101140.84;;;28.84;39.32
23427;BME280;41148;45.420;10.952;2022-07-12T11:54:41;101135.88;;;28.70;39.82
23427;BME280;41148;45.420;10.952;2022-07-12T11:57:09;101135.28;;;28.76;39.59
23427;BME280;41148;45.420;10.952;2022-07-12T11:59:37;101130.19;;;28.81;39.41
23427;BME280;41148;45.420;10.952;2022-07-12T12:02:08;101125.44;;;28.73;39.62
23427;BME280;41148;45.420;10.952;2022-07-12T12:04:45;101124.66;;;28.54;39.72
23427;BME280;41148;45.420;10.952;2022-07-12T12:07:13;101125.91;;;28.69;39.80
23427;BME280;41148;45.420;10.952;2022-07-12T12:12:43;101121.38;;;28.40;40.55
23427;BME280;41148;45.420;10.952;2022-07-12T12:15:18;101126.41;;;28.35;40.72
23427;BME280;41148;45.420;10.952;2022-07-12T12:17:50;101117.91;;;28.48;40.59
23427;BME280;41148;45.420;10.952;2022-07-12T12:20:19;101115.56;;;28.53;40.50
23427;BME280;41148;45.420;10.952;2022-07-12T12:22:48;101109.28;;;28.80;40.04
23427;BME280;41148;45.420;10.952;2022-07-12T12:25:17;101105.94;;;28.96;39.90
23427;BME280;41148;45.420;10.952;2022-07-12T12:30:32;101098.34;;;29.07;39.47
23427;BME280;41148;45.420;10.952;2022-07-12T12:33:02;101095.94;;;28.95;39.31
23427;BME280;41148;45.420;10.952;2022-07-12T12:35:31;101098.09;;;29.01;39.79
23427;BME280;41148;45.420;10.952;2022-07-12T12:38:00;101089.81;;;29.11;39.67
23427;BME280;41148;45.420;10.952;2022-07-12T12:40:30;101085.59;;;29.16;39.57
23427;BME280;41148;45.420;10.952;2022-07-12T12:43:08;101083.09;;;29.23;39.63
23427;BME280;41148;45.420;10.952;2022-07-12T12:45:36;101077.06;;;29.19;39.24
23427;BME280;41148;45.420;10.952;2022-07-12T12:48:04;101073.53;;;29.27;39.28
23427;BME280;41148;45.420;10.952;2022-07-12T12:50:42;101079.50;;;29.40;39.00
23427;BME280;41148;45.420;10.952;2022-07-12T12:53:10;101066.19;;;29.45;38.92
23427;BME280;41148;45.420;10.952;2022-07-12T12:55:38;101065.28;;;29.09;39.10
23427;BME280;41148;45.420;10.952;2022-07-12T12:58:07;101061.94;;;29.15;39.43
23427;BME280;41148;45.420;10.952;2022-07-12T13:00:35;101053.84;;;29.31;39.44
23427;BME280;41148;45.420;10.952;2022-07-12T13:03:03;101060.41;;;29.48;39.18
23427;BME280;41148;45.420;10.952;2022-07-12T13:05:39;101055.53;;;29.60;38.20
23427;BME280;41148;45.420;10.952;2022-07-12T13:08:08;101058.00;;;29.63;38.68
23427;BME280;41148;45.420;10.952;2022-07-12T13:10:35;101054.34;;;29.62;38.39
23427;BME280;41148;45.420;10.952;2022-07-12T13:13:03;101050.13;;;29.50;38.81
23427;BME280;41148;45.420;10.952;2022-07-12T13:15:31;101050.59;;;29.46;38.94